Montague Siskiyou County Airport

About
Name: Montague Siskiyou County Airport
Identifier:  SIY/KSIY
Local Time:  18. Aug 05:48 PDT
Location
Flights per Day
0 flights
Distance: 311km (193mi)
Punctuality
75% (0 flights per day delayed)
Delay Average: 16 minutes
Current Weather
 14 C (Humidity: 58%)
  3kt (5km/h / 3mph) from 30°
  16km (10 mi.)
 
 METAR KSIY 181153Z AUTO 03003KT 10SM CLR 14/06 A2987 RMK AO2 SLP099 T01440061 10222 20139 56001

Current Flights

Departures
Number Departure To Airline
Arrivals
Number Arrival From Airline

Current Delays

Departures
N/A
Arrivals
N/A

Destinations

Top Destinations
Airport Flights
per week
Seats
per week
  Redding (RDD) 4 - 0 0
  Sacramento (MHR) 3 - 0 0
  Medford (MFR) 0 - 0 0
  Aspen (ASE) 0 - 0 0
  San Diego (CLD) 0 - 0 0
  Eureka (EKA) 0 - 0 0
  Eureka (ACV) 0 - 0 0

Airlines & Planes

Top Airlines
Airline Flights
per Day
Seats
per Day
Redding Aero Enterprises 1 -
  National Airlines 0 -
Calstar 0 -
  Flybe Nordic 0 -
Top Plane Types
Model Flights Seats
Cessna C402 0.7/day - 0
Cessna C208 0.5/day - 0
Embraer Phenom 300 0.1/day - 0
Beech E90 King Air 0.1/day - 0
Beech B200 Super King Air 0.0/day - 0
Cirrus SR22 0.0/day - 0